sensor_id;sensor_type;location;lat;lon;timestamp;P1;durP1;ratioP1;P2;durP2;ratioP2
50988;SDS011;37008;52.210;21.112;2023-02-01T00:01:54;14.52;;;11.30;;
50988;SDS011;37008;52.210;21.112;2023-02-01T00:04:20;14.27;;;10.95;;
50988;SDS011;37008;52.210;21.112;2023-02-01T00:06:47;15.45;;;11.10;;
50988;SDS011;37008;52.210;21.112;2023-02-01T00:09:12;16.33;;;10.38;;
50988;SDS011;37008;52.210;21.112;2023-02-01T00:11:38;10.73;;;8.65;;
50988;SDS011;37008;52.210;21.112;2023-02-01T00:14:04;14.65;;;10.05;;
50988;SDS011;37008;52.210;21.112;2023-02-01T00:16:30;14.68;;;10.95;;
50988;SDS011;37008;52.210;21.112;2023-02-01T00:18:57;13.23;;;10.68;;
50988;SDS011;37008;52.210;21.112;2023-02-01T00:21:31;14.18;;;10.38;;
50988;SDS011;37008;52.210;21.112;2023-02-01T00:23:57;12.32;;;9.80;;
50988;SDS011;37008;52.210;21.112;2023-02-01T00:26:25;13.32;;;9.77;;
50988;SDS011;37008;52.210;21.112;2023-02-01T00:28:52;15.93;;;10.05;;
50988;SDS011;37008;52.210;21.112;2023-02-01T00:31:18;14.20;;;10.32;;
50988;SDS011;37008;52.210;21.112;2023-02-01T00:33:46;10.98;;;8.40;;
50988;SDS011;37008;52.210;21.112;2023-02-01T00:36:12;11.68;;;8.23;;
50988;SDS011;37008;52.210;21.112;2023-02-01T00:38:38;11.40;;;8.55;;
50988;SDS011;37008;52.210;21.112;2023-02-01T00:43:31;9.70;;;6.93;;
50988;SDS011;37008;52.210;21.112;2023-02-01T00:45:59;8.30;;;5.60;;
50988;SDS011;37008;52.210;21.112;2023-02-01T00:48:25;9.50;;;5.93;;
50988;SDS011;37008;52.210;21.112;2023-02-01T00:50:51;6.90;;;5.53;;
50988;SDS011;37008;52.210;21.112;2023-02-01T00:53:16;8.20;;;3.92;;
50988;SDS011;37008;52.210;21.112;2023-02-01T00:55:45;4.93;;;3.42;;
50988;SDS011;37008;52.210;21.112;2023-02-01T00:58:12;6.22;;;3.70;;
50988;SDS011;37008;52.210;21.112;2023-02-01T01:00:37;5.85;;;3.85;;
50988;SDS011;37008;52.210;21.112;2023-02-01T01:03:03;4.25;;;2.78;;
50988;SDS011;37008;52.210;21.112;2023-02-01T01:05:49;6.63;;;3.33;;
50988;SDS011;37008;52.210;21.112;2023-02-01T01:08:15;3.95;;;2.40;;
50988;SDS011;37008;52.210;21.112;2023-02-01T01:10:41;5.97;;;2.53;;
50988;SDS011;37008;52.210;21.112;2023-02-01T01:13:08;6.03;;;2.20;;
50988;SDS011;37008;52.210;21.112;2023-02-01T01:15:37;5.13;;;2.42;;
50988;SDS011;37008;52.210;21.112;2023-02-01T01:18:04;4.05;;;2.40;;
50988;SDS011;37008;52.210;21.112;2023-02-01T01:20:29;8.18;;;2.58;;
50988;SDS011;37008;52.210;21.112;2023-02-01T01:22:55;4.82;;;2.05;;
50988;SDS011;37008;52.210;21.112;2023-02-01T01:25:21;8.32;;;2.58;;
50988;SDS011;37008;52.210;21.112;2023-02-01T01:27:46;7.45;;;2.40;;
50988;SDS011;37008;52.210;21.112;2023-02-01T01:30:12;5.68;;;2.25;;
50988;SDS011;37008;52.210;21.112;2023-02-01T01:32:38;7.03;;;2.03;;
50988;SDS011;37008;52.210;21.112;2023-02-01T01:35:03;6.70;;;1.85;;
50988;SDS011;37008;52.210;21.112;2023-02-01T01:37:29;5.15;;;1.73;;
50988;SDS011;37008;52.210;21.112;2023-02-01T01:39:56;6.60;;;1.67;;
50988;SDS011;37008;52.210;21.112;2023-02-01T01:42:22;6.93;;;2.00;;
50988;SDS011;37008;52.210;21.112;2023-02-01T01:45:02;4.75;;;1.55;;
50988;SDS011;37008;52.210;21.112;2023-02-01T01:48:16;3.55;;;1.40;;
50988;SDS011;37008;52.210;21.112;2023-02-01T01:50:30;7.85;;;1.85;;
50988;SDS011;37008;52.210;21.112;2023-02-01T01:52:58;9.43;;;3.45;;
50988;SDS011;37008;52.210;21.112;2023-02-01T01:55:27;7.45;;;2.05;;
50988;SDS011;37008;52.210;21.112;2023-02-01T01:58:00;7.07;;;1.73;;
50988;SDS011;37008;52.210;21.112;2023-02-01T02:00:30;5.72;;;1.92;;
50988;SDS011;37008;52.210;21.112;2023-02-01T02:02:58;8.07;;;2.40;;
50988;SDS011;37008;52.210;21.112;2023-02-01T02:05:29;6.60;;;1.95;;
50988;SDS011;37008;52.210;21.112;2023-02-01T02:07:56;4.05;;;1.63;;
50988;SDS011;37008;52.210;21.112;2023-02-01T02:10:24;11.65;;;2.60;;
50988;SDS011;37008;52.210;21.112;2023-02-01T02:13:10;8.10;;;2.42;;
50988;SDS011;37008;52.210;21.112;2023-02-01T02:15:38;6.20;;;2.40;;
50988;SDS011;37008;52.210;21.112;2023-02-01T02:18:14;7.82;;;2.53;;
50988;SDS011;37008;52.210;21.112;2023-02-01T02:26:59;10.05;;;2.55;;
50988;SDS011;37008;52.210;21.112;2023-02-01T02:29:35;6.18;;;2.42;;
50988;SDS011;37008;52.210;21.112;2023-02-01T02:35:30;13.48;;;3.28;;
50988;SDS011;37008;52.210;21.112;2023-02-01T02:38:18;10.10;;;3.08;;
50988;SDS011;37008;52.210;21.112;2023-02-01T02:44:14;16.38;;;3.25;;
50988;SDS011;37008;52.210;21.112;2023-02-01T02:47:21;11.00;;;2.88;;
50988;SDS011;37008;52.210;21.112;2023-02-01T02:50:35;8.73;;;2.83;;
50988;SDS011;37008;52.210;21.112;2023-02-01T02:53:13;11.35;;;3.20;;
50988;SDS011;37008;52.210;21.112;2023-02-01T02:56:03;11.25;;;2.88;;
50988;SDS011;37008;52.210;21.112;2023-02-01T02:58:49;12.73;;;2.92;;
50988;SDS011;37008;52.210;21.112;2023-02-01T03:01:34;12.13;;;3.63;;
50988;SDS011;37008;52.210;21.112;2023-02-01T03:04:19;13.15;;;2.63;;
50988;SDS011;37008;52.210;21.112;2023-02-01T03:06:46;15.75;;;3.20;;
50988;SDS011;37008;52.210;21.112;2023-02-01T03:09:54;10.52;;;2.70;;
50988;SDS011;37008;52.210;21.112;2023-02-01T03:12:04;9.82;;;3.17;;
50988;SDS011;37008;52.210;21.112;2023-02-01T03:14:52;14.27;;;2.80;;
50988;SDS011;37008;52.210;21.112;2023-02-01T03:17:25;13.10;;;3.50;;
50988;SDS011;37008;52.210;21.112;2023-02-01T03:19:56;13.02;;;2.58;;
50988;SDS011;37008;52.210;21.112;2023-02-01T03:22:27;15.95;;;3.15;;
50988;SDS011;37008;52.210;21.112;2023-02-01T03:24:59;14.95;;;2.85;;
50988;SDS011;37008;52.210;21.112;2023-02-01T03:30:21;14.15;;;3.25;;
50988;SDS011;37008;52.210;21.112;2023-02-01T03:32:51;14.68;;;3.30;;
50988;SDS011;37008;52.210;21.112;2023-02-01T03:35:36;11.00;;;2.72;;
50988;SDS011;37008;52.210;21.112;2023-02-01T03:38:27;12.85;;;2.85;;
50988;SDS011;37008;52.210;21.112;2023-02-01T03:41:02;19.23;;;3.50;;
50988;SDS011;37008;52.210;21.112;2023-02-01T03:43:30;11.52;;;3.17;;
50988;SDS011;37008;52.210;21.112;2023-02-01T03:46:03;14.25;;;3.00;;
50988;SDS011;37008;52.210;21.112;2023-02-01T03:48:32;12.23;;;3.50;;
50988;SDS011;37008;52.210;21.112;2023-02-01T03:51:00;17.52;;;3.45;;
50988;SDS011;37008;52.210;21.112;2023-02-01T03:53:30;16.73;;;2.83;;
50988;SDS011;37008;52.210;21.112;2023-02-01T03:55:57;19.95;;;5.72;;
50988;SDS011;37008;52.210;21.112;2023-02-01T03:58:23;18.02;;;3.58;;
50988;SDS011;37008;52.210;21.112;2023-02-01T04:00:50;11.10;;;3.03;;
50988;SDS011;37008;52.210;21.112;2023-02-01T04:03:23;18.65;;;4.25;;
50988;SDS011;37008;52.210;21.112;2023-02-01T04:05:50;16.55;;;3.85;;
50988;SDS011;37008;52.210;21.112;2023-02-01T04:08:18;17.38;;;3.15;;
50988;SDS011;37008;52.210;21.112;2023-02-01T04:10:47;15.48;;;3.72;;
50988;SDS011;37008;52.210;21.112;2023-02-01T04:13:13;16.23;;;3.10;;
50988;SDS011;37008;52.210;21.112;2023-02-01T04:15:38;14.82;;;3.22;;
50988;SDS011;37008;52.210;21.112;2023-02-01T04:18:04;13.77;;;4.32;;
50988;SDS011;37008;52.210;21.112;2023-02-01T04:20:30;12.63;;;3.33;;
50988;SDS011;37008;52.210;21.112;2023-02-01T04:22:56;14.07;;;3.38;;
50988;SDS011;37008;52.210;21.112;2023-02-01T04:25:21;18.13;;;3.55;;
50988;SDS011;37008;52.210;21.112;2023-02-01T04:27:47;11.93;;;2.85;;
50988;SDS011;37008;52.210;21.112;2023-02-01T04:30:13;9.90;;;2.95;;
50988;SDS011;37008;52.210;21.112;2023-02-01T04:32:39;16.15;;;4.30;;
50988;SDS011;37008;52.210;21.112;2023-02-01T04:35:04;10.02;;;3.03;;
50988;SDS011;37008;52.210;21.112;2023-02-01T04:37:31;15.00;;;3.15;;
50988;SDS011;37008;52.210;21.112;2023-02-01T04:39:57;12.50;;;3.28;;
50988;SDS011;37008;52.210;21.112;2023-02-01T04:42:22;13.32;;;3.22;;
50988;SDS011;37008;52.210;21.112;2023-02-01T04:44:48;19.63;;;4.55;;
50988;SDS011;37008;52.210;21.112;2023-02-01T04:47:14;20.52;;;3.22;;
50988;SDS011;37008;52.210;21.112;2023-02-01T04:49:40;12.23;;;2.50;;
50988;SDS011;37008;52.210;21.112;2023-02-01T04:52:06;16.33;;;2.95;;
50988;SDS011;37008;52.210;21.112;2023-02-01T04:54:32;15.48;;;2.95;;
50988;SDS011;37008;52.210;21.112;2023-02-01T04:56:57;14.95;;;3.40;;
50988;SDS011;37008;52.210;21.112;2023-02-01T04:59:23;22.30;;;3.58;;
50988;SDS011;37008;52.210;21.112;2023-02-01T05:01:49;9.98;;;2.92;;
50988;SDS011;37008;52.210;21.112;2023-02-01T05:04:14;14.98;;;2.95;;
50988;SDS011;37008;52.210;21.112;2023-02-01T05:06:40;16.17;;;3.95;;
50988;SDS011;37008;52.210;21.112;2023-02-01T05:09:06;13.55;;;3.13;;
50988;SDS011;37008;52.210;21.112;2023-02-01T05:11:31;14.60;;;3.42;;
50988;SDS011;37008;52.210;21.112;2023-02-01T05:14:16;26.10;;;4.00;;
50988;SDS011;37008;52.210;21.112;2023-02-01T05:16:41;13.45;;;3.17;;
50988;SDS011;37008;52.210;21.112;2023-02-01T05:19:07;17.88;;;3.10;;
50988;SDS011;37008;52.210;21.112;2023-02-01T05:21:32;19.25;;;3.38;;
50988;SDS011;37008;52.210;21.112;2023-02-01T05:23:58;25.42;;;4.65;;
50988;SDS011;37008;52.210;21.112;2023-02-01T05:26:37;19.80;;;3.22;;
50988;SDS011;37008;52.210;21.112;2023-02-01T05:29:07;16.75;;;2.97;;
50988;SDS011;37008;52.210;21.112;2023-02-01T05:31:34;17.10;;;3.13;;
50988;SDS011;37008;52.210;21.112;2023-02-01T05:34:00;13.80;;;3.10;;
50988;SDS011;37008;52.210;21.112;2023-02-01T05:36:26;12.80;;;2.65;;
50988;SDS011;37008;52.210;21.112;2023-02-01T05:38:51;16.38;;;2.55;;
50988;SDS011;37008;52.210;21.112;2023-02-01T05:41:17;16.55;;;3.15;;
50988;SDS011;37008;52.210;21.112;2023-02-01T05:43:43;15.30;;;2.70;;
50988;SDS011;37008;52.210;21.112;2023-02-01T05:46:08;12.30;;;3.13;;
50988;SDS011;37008;52.210;21.112;2023-02-01T05:48:38;18.25;;;2.72;;
50988;SDS011;37008;52.210;21.112;2023-02-01T05:51:04;11.23;;;2.95;;
50988;SDS011;37008;52.210;21.112;2023-02-01T05:53:30;11.02;;;2.90;;
50988;SDS011;37008;52.210;21.112;2023-02-01T05:55:55;13.95;;;3.00;;
50988;SDS011;37008;52.210;21.112;2023-02-01T05:58:21;19.67;;;3.22;;
50988;SDS011;37008;52.210;21.112;2023-02-01T06:00:47;11.88;;;2.50;;
50988;SDS011;37008;52.210;21.112;2023-02-01T06:03:12;23.42;;;3.83;;
50988;SDS011;37008;52.210;21.112;2023-02-01T06:05:38;16.75;;;3.20;;
50988;SDS011;37008;52.210;21.112;2023-02-01T06:08:04;15.10;;;2.95;;
50988;SDS011;37008;52.210;21.112;2023-02-01T06:10:32;13.10;;;2.70;;
50988;SDS011;37008;52.210;21.112;2023-02-01T06:12:58;14.55;;;2.78;;
50988;SDS011;37008;52.210;21.112;2023-02-01T06:15:23;14.57;;;3.35;;
50988;SDS011;37008;52.210;21.112;2023-02-01T06:17:49;17.20;;;3.72;;
50988;SDS011;37008;52.210;21.112;2023-02-01T06:20:15;16.80;;;3.88;;
50988;SDS011;37008;52.210;21.112;2023-02-01T06:22:41;15.23;;;3.05;;
50988;SDS011;37008;52.210;21.112;2023-02-01T06:25:07;15.65;;;3.97;;
50988;SDS011;37008;52.210;21.112;2023-02-01T06:27:34;18.42;;;3.47;;
50988;SDS011;37008;52.210;21.112;2023-02-01T06:30:00;21.20;;;4.07;;
50988;SDS011;37008;52.210;21.112;2023-02-01T06:32:27;17.15;;;4.78;;
50988;SDS011;37008;52.210;21.112;2023-02-01T06:34:52;16.38;;;3.17;;
50988;SDS011;37008;52.210;21.112;2023-02-01T06:37:18;15.65;;;3.38;;
50988;SDS011;37008;52.210;21.112;2023-02-01T06:39:44;18.58;;;3.00;;
50988;SDS011;37008;52.210;21.112;2023-02-01T06:42:11;13.48;;;3.25;;
50988;SDS011;37008;52.210;21.112;2023-02-01T06:44:36;23.15;;;3.60;;
50988;SDS011;37008;52.210;21.112;2023-02-01T06:47:03;18.33;;;3.47;;
50988;SDS011;37008;52.210;21.112;2023-02-01T06:49:28;14.90;;;3.28;;
50988;SDS011;37008;52.210;21.112;2023-02-01T06:51:54;14.90;;;2.72;;
50988;SDS011;37008;52.210;21.112;2023-02-01T06:54:20;16.67;;;3.13;;
50988;SDS011;37008;52.210;21.112;2023-02-01T06:56:45;17.98;;;3.10;;
50988;SDS011;37008;52.210;21.112;2023-02-01T06:59:11;18.67;;;3.55;;
50988;SDS011;37008;52.210;21.112;2023-02-01T07:01:37;20.15;;;3.67;;
50988;SDS011;37008;52.210;21.112;2023-02-01T07:04:03;16.50;;;3.08;;
50988;SDS011;37008;52.210;21.112;2023-02-01T07:06:29;12.60;;;3.08;;
50988;SDS011;37008;52.210;21.112;2023-02-01T07:08:54;19.70;;;3.72;;
50988;SDS011;37008;52.210;21.112;2023-02-01T07:11:23;14.23;;;3.20;;
50988;SDS011;37008;52.210;21.112;2023-02-01T07:13:49;15.07;;;3.20;;
50988;SDS011;37008;52.210;21.112;2023-02-01T07:16:16;13.23;;;3.70;;
50988;SDS011;37008;52.210;21.112;2023-02-01T07:18:44;18.92;;;3.22;;
50988;SDS011;37008;52.210;21.112;2023-02-01T07:21:10;16.75;;;3.53;;
50988;SDS011;37008;52.210;21.112;2023-02-01T07:23:36;14.25;;;3.13;;
50988;SDS011;37008;52.210;21.112;2023-02-01T07:26:03;15.63;;;4.65;;
50988;SDS011;37008;52.210;21.112;2023-02-01T07:28:31;11.77;;;3.20;;
50988;SDS011;37008;52.210;21.112;2023-02-01T07:31:03;15.02;;;3.20;;
50988;SDS011;37008;52.210;21.112;2023-02-01T07:33:32;19.60;;;3.58;;
50988;SDS011;37008;52.210;21.112;2023-02-01T07:36:00;12.82;;;2.92;;
50988;SDS011;37008;52.210;21.112;2023-02-01T07:38:27;13.68;;;3.58;;
50988;SDS011;37008;52.210;21.112;2023-02-01T07:40:57;14.55;;;3.55;;
50988;SDS011;37008;52.210;21.112;2023-02-01T07:43:24;20.77;;;3.63;;
50988;SDS011;37008;52.210;21.112;2023-02-01T07:45:51;16.35;;;3.58;;
50988;SDS011;37008;52.210;21.112;2023-02-01T07:48:17;15.23;;;3.85;;
50988;SDS011;37008;52.210;21.112;2023-02-01T07:50:43;13.23;;;3.38;;
50988;SDS011;37008;52.210;21.112;2023-02-01T07:53:08;16.27;;;3.42;;
50988;SDS011;37008;52.210;21.112;2023-02-01T07:55:36;18.42;;;3.35;;
50988;SDS011;37008;52.210;21.112;2023-02-01T07:58:03;15.98;;;3.63;;
50988;SDS011;37008;52.210;21.112;2023-02-01T08:00:28;16.48;;;3.53;;
50988;SDS011;37008;52.210;21.112;2023-02-01T08:03:12;20.70;;;4.03;;
50988;SDS011;37008;52.210;21.112;2023-02-01T08:05:38;17.83;;;3.33;;
50988;SDS011;37008;52.210;21.112;2023-02-01T08:08:04;18.95;;;4.45;;
50988;SDS011;37008;52.210;21.112;2023-02-01T08:10:30;22.55;;;3.85;;
50988;SDS011;37008;52.210;21.112;2023-02-01T08:12:58;19.83;;;4.03;;
50988;SDS011;37008;52.210;21.112;2023-02-01T08:15:25;16.98;;;3.28;;
50988;SDS011;37008;52.210;21.112;2023-02-01T08:17:53;18.40;;;4.72;;
50988;SDS011;37008;52.210;21.112;2023-02-01T08:20:20;21.20;;;3.13;;
50988;SDS011;37008;52.210;21.112;2023-02-01T08:22:50;18.48;;;4.28;;
50988;SDS011;37008;52.210;21.112;2023-02-01T08:25:16;14.63;;;3.63;;
50988;SDS011;37008;52.210;21.112;2023-02-01T08:27:41;24.42;;;4.40;;
50988;SDS011;37008;52.210;21.112;2023-02-01T08:30:07;20.50;;;4.18;;
50988;SDS011;37008;52.210;21.112;2023-02-01T08:32:34;21.80;;;4.22;;
50988;SDS011;37008;52.210;21.112;2023-02-01T08:35:00;19.60;;;4.57;;
50988;SDS011;37008;52.210;21.112;2023-02-01T08:37:26;20.55;;;4.32;;
50988;SDS011;37008;52.210;21.112;2023-02-01T08:39:51;16.27;;;4.03;;
50988;SDS011;37008;52.210;21.112;2023-02-01T08:42:17;18.90;;;3.53;;
50988;SDS011;37008;52.210;21.112;2023-02-01T08:45:03;18.65;;;4.30;;
50988;SDS011;37008;52.210;21.112;2023-02-01T08:47:29;19.33;;;3.83;;
50988;SDS011;37008;52.210;21.112;2023-02-01T08:49:56;16.60;;;3.85;;
50988;SDS011;37008;52.210;21.112;2023-02-01T08:52:22;17.92;;;4.28;;
50988;SDS011;37008;52.210;21.112;2023-02-01T08:54:48;21.30;;;3.97;;
50988;SDS011;37008;52.210;21.112;2023-02-01T08:57:13;18.90;;;3.90;;
50988;SDS011;37008;52.210;21.112;2023-02-01T08:59:39;18.58;;;3.95;;
50988;SDS011;37008;52.210;21.112;2023-02-01T09:02:05;18.48;;;4.22;;
50988;SDS011;37008;52.210;21.112;2023-02-01T09:04:31;23.05;;;4.30;;
50988;SDS011;37008;52.210;21.112;2023-02-01T09:06:58;18.48;;;4.20;;
50988;SDS011;37008;52.210;21.112;2023-02-01T09:09:24;20.13;;;4.28;;
50988;SDS011;37008;52.210;21.112;2023-02-01T09:11:52;17.52;;;4.38;;
50988;SDS011;37008;52.210;21.112;2023-02-01T09:14:17;20.58;;;4.05;;
50988;SDS011;37008;52.210;21.112;2023-02-01T09:16:44;10.75;;;3.17;;
50988;SDS011;37008;52.210;21.112;2023-02-01T09:19:09;18.42;;;3.60;;
50988;SDS011;37008;52.210;21.112;2023-02-01T09:21:35;18.42;;;3.55;;
50988;SDS011;37008;52.210;21.112;2023-02-01T09:24:01;24.33;;;4.32;;
50988;SDS011;37008;52.210;21.112;2023-02-01T09:26:27;16.98;;;3.92;;
50988;SDS011;37008;52.210;21.112;2023-02-01T09:28:53;12.40;;;3.25;;
50988;SDS011;37008;52.210;21.112;2023-02-01T09:31:18;18.60;;;4.30;;
50988;SDS011;37008;52.210;21.112;2023-02-01T09:33:44;23.02;;;4.55;;
50988;SDS011;37008;52.210;21.112;2023-02-01T09:36:09;16.20;;;4.07;;
50988;SDS011;37008;52.210;21.112;2023-02-01T09:38:35;13.00;;;4.03;;
50988;SDS011;37008;52.210;21.112;2023-02-01T09:41:01;16.35;;;3.97;;
50988;SDS011;37008;52.210;21.112;2023-02-01T09:49:16;14.13;;;4.25;;
50988;SDS011;37008;52.210;21.112;2023-02-01T09:51:48;16.77;;;4.60;;
50988;SDS011;37008;52.210;21.112;2023-02-01T09:54:20;16.15;;;3.90;;
50988;SDS011;37008;52.210;21.112;2023-02-01T09:56:51;14.88;;;3.30;;
50988;SDS011;37008;52.210;21.112;2023-02-01T10:01:51;18.33;;;4.07;;
50988;SDS011;37008;52.210;21.112;2023-02-01T10:04:18;16.00;;;3.90;;
50988;SDS011;37008;52.210;21.112;2023-02-01T10:06:47;18.52;;;4.20;;
50988;SDS011;37008;52.210;21.112;2023-02-01T10:12:23;18.73;;;4.22;;
50988;SDS011;37008;52.210;21.112;2023-02-01T10:15:11;20.65;;;4.60;;
50988;SDS011;37008;52.210;21.112;2023-02-01T10:21:02;22.98;;;3.78;;
50988;SDS011;37008;52.210;21.112;2023-02-01T10:24:07;15.18;;;3.65;;
50988;SDS011;37008;52.210;21.112;2023-02-01T10:29:40;15.32;;;3.78;;
50988;SDS011;37008;52.210;21.112;2023-02-01T10:32:11;13.88;;;4.15;;
50988;SDS011;37008;52.210;21.112;2023-02-01T10:34:39;13.75;;;3.30;;
50988;SDS011;37008;52.210;21.112;2023-02-01T10:37:23;12.27;;;3.13;;
50988;SDS011;37008;52.210;21.112;2023-02-01T10:39:53;12.43;;;4.23;;
50988;SDS011;37008;52.210;21.112;2023-02-01T10:42:21;11.43;;;3.53;;
50988;SDS011;37008;52.210;21.112;2023-02-01T10:44:50;13.85;;;3.50;;
50988;SDS011;37008;52.210;21.112;2023-02-01T10:47:17;15.15;;;3.92;;
50988;SDS011;37008;52.210;21.112;2023-02-01T10:52:29;15.65;;;3.90;;
50988;SDS011;37008;52.210;21.112;2023-02-01T10:57:57;11.43;;;3.55;;
50988;SDS011;37008;52.210;21.112;2023-02-01T11:00:25;13.00;;;3.60;;
50988;SDS011;37008;52.210;21.112;2023-02-01T11:02:52;23.08;;;4.68;;
50988;SDS011;37008;52.210;21.112;2023-02-01T11:05:18;15.80;;;4.07;;
50988;SDS011;37008;52.210;21.112;2023-02-01T11:07:51;16.52;;;3.72;;
50988;SDS011;37008;52.210;21.112;2023-02-01T11:10:42;15.65;;;3.78;;
50988;SDS011;37008;52.210;21.112;2023-02-01T11:13:17;16.73;;;3.80;;
50988;SDS011;37008;52.210;21.112;2023-02-01T11:15:46;15.40;;;3.65;;
50988;SDS011;37008;52.210;21.112;2023-02-01T11:18:25;16.45;;;4.43;;
50988;SDS011;37008;52.210;21.112;2023-02-01T11:20:53;20.52;;;4.13;;
50988;SDS011;37008;52.210;21.112;2023-02-01T11:23:21;17.15;;;4.45;;
50988;SDS011;37008;52.210;21.112;2023-02-01T11:25:50;13.73;;;3.25;;
50988;SDS011;37008;52.210;21.112;2023-02-01T11:28:19;19.70;;;4.45;;
50988;SDS011;37008;52.210;21.112;2023-02-01T11:30:47;16.73;;;4.03;;
50988;SDS011;37008;52.210;21.112;2023-02-01T11:33:15;24.65;;;4.57;;
50988;SDS011;37008;52.210;21.112;2023-02-01T11:35:44;20.73;;;4.20;;
50988;SDS011;37008;52.210;21.112;2023-02-01T11:38:18;16.60;;;4.53;;
50988;SDS011;37008;52.210;21.112;2023-02-01T11:40:47;20.52;;;3.83;;
50988;SDS011;37008;52.210;21.112;2023-02-01T11:45:59;12.90;;;3.47;;
50988;SDS011;37008;52.210;21.112;2023-02-01T11:48:27;15.60;;;3.67;;
50988;SDS011;37008;52.210;21.112;2023-02-01T11:53:44;16.70;;;3.58;;
50988;SDS011;37008;52.210;21.112;2023-02-01T12:10:49;13.98;;;3.88;;
50988;SDS011;37008;52.210;21.112;2023-02-01T12:13:55;17.73;;;4.20;;
50988;SDS011;37008;52.210;21.112;2023-02-01T12:24:27;14.93;;;3.95;;
50988;SDS011;37008;52.210;21.112;2023-02-01T12:42:01;17.23;;;5.55;;
50988;SDS011;37008;52.210;21.112;2023-02-01T12:44:50;20.15;;;4.93;;
50988;SDS011;37008;52.210;21.112;2023-02-01T12:47:41;19.98;;;5.20;;
50988;SDS011;37008;52.210;21.112;2023-02-01T12:50:35;20.65;;;5.88;;
50988;SDS011;37008;52.210;21.112;2023-02-01T12:53:21;15.70;;;4.93;;
50988;SDS011;37008;52.210;21.112;2023-02-01T12:55:58;22.98;;;5.05;;
50988;SDS011;37008;52.210;21.112;2023-02-01T12:58:39;20.10;;;4.70;;
50988;SDS011;37008;52.210;21.112;2023-02-01T13:01:25;17.05;;;4.80;;
50988;SDS011;37008;52.210;21.112;2023-02-01T13:07:26;27.45;;;5.75;;
50988;SDS011;37008;52.210;21.112;2023-02-01T13:12:13;24.60;;;5.47;;
50988;SDS011;37008;52.210;21.112;2023-02-01T13:14:55;20.88;;;4.93;;
50988;SDS011;37008;52.210;21.112;2023-02-01T13:17:28;22.85;;;5.88;;
50988;SDS011;37008;52.210;21.112;2023-02-01T13:19:58;22.42;;;5.38;;
50988;SDS011;37008;52.210;21.112;2023-02-01T13:22:38;23.42;;;4.82;;
50988;SDS011;37008;52.210;21.112;2023-02-01T13:25:12;16.42;;;4.78;;
50988;SDS011;37008;52.210;21.112;2023-02-01T13:27:41;20.50;;;4.43;;
50988;SDS011;37008;52.210;21.112;2023-02-01T13:30:13;17.33;;;4.57;;
50988;SDS011;37008;52.210;21.112;2023-02-01T13:35:36;23.30;;;5.47;;
50988;SDS011;37008;52.210;21.112;2023-02-01T13:38:33;23.63;;;4.70;;
50988;SDS011;37008;52.210;21.112;2023-02-01T13:43:55;16.73;;;4.15;;
50988;SDS011;37008;52.210;21.112;2023-02-01T13:46:44;15.48;;;4.10;;
50988;SDS011;37008;52.210;21.112;2023-02-01T13:49:19;13.83;;;4.27;;
50988;SDS011;37008;52.210;21.112;2023-02-01T13:51:51;15.68;;;4.25;;
50988;SDS011;37008;52.210;21.112;2023-02-01T13:54:24;14.25;;;4.47;;
50988;SDS011;37008;52.210;21.112;2023-02-01T13:56:58;14.23;;;3.60;;
50988;SDS011;37008;52.210;21.112;2023-02-01T14:10:47;12.52;;;4.32;;
50988;SDS011;37008;52.210;21.112;2023-02-01T14:13:31;16.92;;;4.40;;
50988;SDS011;37008;52.210;21.112;2023-02-01T14:23:47;21.00;;;4.47;;
50988;SDS011;37008;52.210;21.112;2023-02-01T15:01:06;15.65;;;5.80;;
50988;SDS011;37008;52.210;21.112;2023-02-01T15:06:18;12.38;;;4.35;;
50988;SDS011;37008;52.210;21.112;2023-02-01T15:08:52;11.30;;;4.20;;
50988;SDS011;37008;52.210;21.112;2023-02-01T15:11:32;13.63;;;5.05;;
50988;SDS011;37008;52.210;21.112;2023-02-01T15:14:31;9.57;;;4.75;;
50988;SDS011;37008;52.210;21.112;2023-02-01T15:17:02;6.93;;;3.33;;
50988;SDS011;37008;52.210;21.112;2023-02-01T15:19:41;17.17;;;6.00;;
50988;SDS011;37008;52.210;21.112;2023-02-01T15:22:19;16.83;;;5.82;;
50988;SDS011;37008;52.210;21.112;2023-02-01T15:24:51;12.50;;;4.65;;
50988;SDS011;37008;52.210;21.112;2023-02-01T15:27:20;8.70;;;4.03;;
50988;SDS011;37008;52.210;21.112;2023-02-01T15:29:46;16.75;;;7.60;;
50988;SDS011;37008;52.210;21.112;2023-02-01T15:32:32;9.98;;;4.18;;
50988;SDS011;37008;52.210;21.112;2023-02-01T15:35:30;6.78;;;3.33;;
50988;SDS011;37008;52.210;21.112;2023-02-01T15:38:19;10.82;;;4.60;;
50988;SDS011;37008;52.210;21.112;2023-02-01T15:40:56;10.93;;;3.72;;
50988;SDS011;37008;52.210;21.112;2023-02-01T15:43:21;8.27;;;3.40;;
50988;SDS011;37008;52.210;21.112;2023-02-01T15:45:47;10.52;;;5.13;;
50988;SDS011;37008;52.210;21.112;2023-02-01T15:48:20;18.85;;;9.48;;
50988;SDS011;37008;52.210;21.112;2023-02-01T15:50:48;14.55;;;6.80;;
50988;SDS011;37008;52.210;21.112;2023-02-01T15:53:17;17.83;;;9.38;;
50988;SDS011;37008;52.210;21.112;2023-02-01T15:55:45;11.98;;;5.10;;
50988;SDS011;37008;52.210;21.112;2023-02-01T15:58:17;26.42;;;11.82;;
50988;SDS011;37008;52.210;21.112;2023-02-01T16:00:46;18.33;;;7.80;;
50988;SDS011;37008;52.210;21.112;2023-02-01T16:03:37;15.85;;;6.38;;
50988;SDS011;37008;52.210;21.112;2023-02-01T16:08:55;18.10;;;7.10;;
50988;SDS011;37008;52.210;21.112;2023-02-01T16:13:55;12.30;;;5.68;;
50988;SDS011;37008;52.210;21.112;2023-02-01T16:16:22;13.77;;;6.15;;
50988;SDS011;37008;52.210;21.112;2023-02-01T16:18:48;16.50;;;6.20;;
50988;SDS011;37008;52.210;21.112;2023-02-01T16:21:13;16.83;;;7.00;;
50988;SDS011;37008;52.210;21.112;2023-02-01T16:23:39;13.93;;;6.22;;
50988;SDS011;37008;52.210;21.112;2023-02-01T16:26:05;10.15;;;5.15;;
50988;SDS011;37008;52.210;21.112;2023-02-01T16:28:31;12.88;;;6.18;;
50988;SDS011;37008;52.210;21.112;2023-02-01T16:30:57;13.70;;;5.22;;
50988;SDS011;37008;52.210;21.112;2023-02-01T16:33:24;12.13;;;6.40;;
50988;SDS011;37008;52.210;21.112;2023-02-01T16:35:50;10.93;;;5.22;;
50988;SDS011;37008;52.210;21.112;2023-02-01T16:38:17;10.13;;;4.90;;
50988;SDS011;37008;52.210;21.112;2023-02-01T16:40:46;13.00;;;5.80;;
50988;SDS011;37008;52.210;21.112;2023-02-01T16:43:15;15.13;;;5.47;;
50988;SDS011;37008;52.210;21.112;2023-02-01T16:45:46;14.80;;;6.10;;
50988;SDS011;37008;52.210;21.112;2023-02-01T16:48:22;10.50;;;5.60;;
50988;SDS011;37008;52.210;21.112;2023-02-01T16:50:50;15.25;;;6.60;;
50988;SDS011;37008;52.210;21.112;2023-02-01T16:53:21;20.88;;;8.00;;
50988;SDS011;37008;52.210;21.112;2023-02-01T16:55:48;14.48;;;5.95;;
50988;SDS011;37008;52.210;21.112;2023-02-01T16:58:15;13.30;;;6.50;;
50988;SDS011;37008;52.210;21.112;2023-02-01T17:00:41;19.45;;;7.53;;
50988;SDS011;37008;52.210;21.112;2023-02-01T17:03:09;16.65;;;6.72;;
50988;SDS011;37008;52.210;21.112;2023-02-01T17:05:36;12.38;;;5.75;;
50988;SDS011;37008;52.210;21.112;2023-02-01T17:08:02;13.07;;;5.53;;
50988;SDS011;37008;52.210;21.112;2023-02-01T17:10:30;13.32;;;6.50;;
50988;SDS011;37008;52.210;21.112;2023-02-01T17:12:56;15.35;;;6.88;;
50988;SDS011;37008;52.210;21.112;2023-02-01T17:15:26;14.38;;;6.32;;
50988;SDS011;37008;52.210;21.112;2023-02-01T17:17:54;14.13;;;6.28;;
50988;SDS011;37008;52.210;21.112;2023-02-01T17:20:22;14.50;;;7.13;;